Time;durP1;ratioP1;P1;durP2;ratioP2;P2;SDS_P1;SDS_P2;PMS_P1;PMS_P2;Temp;Humidity;BMP_temperature;BMP_pressure;BME280_temperature;BME280_humidity;BME280_pressure;Samples;Min_cycle;Max_cycle;Signal;HPM_P1;HPM_P2
2022/10/07 00:02:05;;;;;;;14.00;7.35;;;;;;;;;;5032883;28;20209;-81
2022/10/07 00:04:33;;;;;;;15.38;7.20;;;;;;;;;;5013870;28;20084;-78
2022/10/07 00:06:59;;;;;;;16.63;7.43;;;;;;;;;;5033153;28;20141;-78
2022/10/07 00:09:25;;;;;;;12.82;7.57;;;;;;;;;;5033784;28;20118;-80
2022/10/07 00:11:52;;;;;;;16.88;7.75;;;;;;;;;;5034853;28;20049;-81
2022/10/07 00:14:18;;;;;;;17.17;7.72;;;;;;;;;;5036907;28;20045;-81
2022/10/07 00:16:44;;;;;;;16.25;8.50;;;;;;;;;;5035290;28;20108;-80
2022/10/07 00:19:12;;;;;;;20.38;9.02;;;;;;;;;;5036296;28;20045;-80
2022/10/07 00:21:39;;;;;;;15.93;8.15;;;;;;;;;;5018163;28;20105;-80
2022/10/07 00:24:06;;;;;;;19.88;8.00;;;;;;;;;;5035862;28;20129;-79
2022/10/07 00:26:33;;;;;;;18.25;8.52;;;;;;;;;;5032417;28;20084;-78
2022/10/07 00:29:00;;;;;;;22.15;9.43;;;;;;;;;;5014218;28;20046;-80
2022/10/07 00:31:27;;;;;;;21.58;9.45;;;;;;;;;;5015095;28;20124;-80
2022/10/07 00:33:54;;;;;;;21.17;9.40;;;;;;;;;;5035054;28;20076;-80
2022/10/07 00:36:22;;;;;;;23.77;8.90;;;;;;;;;;5035796;28;20469;-78
2022/10/07 00:38:51;;;;;;;24.13;9.27;;;;;;;;;;5032018;28;20089;-79
2022/10/07 00:41:19;;;;;;;21.45;8.48;;;;;;;;;;5013535;28;20049;-81
2022/10/07 00:43:46;;;;;;;21.33;8.90;;;;;;;;;;5032971;28;20055;-79
2022/10/07 00:46:25;;;;;;;20.58;9.20;;;;;;;;;;5014364;28;20128;-79
2022/10/07 00:48:55;;;;;;;21.40;8.80;;;;;;;;;;5032113;28;20068;-80
2022/10/07 00:51:22;;;;;;;15.82;8.25;;;;;;;;;;5032582;28;20060;-79
2022/10/07 00:53:49;;;;;;;19.65;8.25;;;;;;;;;;5041623;28;20055;-80
2022/10/07 00:56:16;;;;;;;20.48;8.60;;;;;;;;;;5049228;28;20045;-80
2022/10/07 00:58:44;;;;;;;17.67;8.10;;;;;;;;;;5047007;28;20060;-80
2022/10/07 01:01:11;;;;;;;16.35;8.25;;;;;;;;;;5035201;28;20144;-79
2022/10/07 01:03:37;;;;;;;21.33;8.18;;;;;;;;;;5033028;28;20053;-81
2022/10/07 01:06:05;;;;;;;14.63;7.20;;;;;;;;;;5032089;28;20053;-82
2022/10/07 01:08:34;;;;;;;14.48;7.47;;;;;;;;;;5031687;28;20060;-82
2022/10/07 01:11:12;;;;;;;15.35;7.72;;;;;;;;;;5031275;28;20421;-80
2022/10/07 01:13:44;;;;;;;15.50;7.18;;;;;;;;;;5031544;28;20054;-81
2022/10/07 01:16:20;;;;;;;13.05;7.22;;;;;;;;;;5031543;28;20138;-81
2022/10/07 01:18:57;;;;;;;13.57;7.45;;;;;;;;;;5031094;28;20553;-81
2022/10/07 01:21:32;;;;;;;15.57;6.82;;;;;;;;;;5031247;28;20057;-81
2022/10/07 01:24:17;;;;;;;13.67;6.90;;;;;;;;;;5031241;28;20461;-81
2022/10/07 01:26:46;;;;;;;11.40;6.97;;;;;;;;;;5031992;28;20288;-81
2022/10/07 01:29:24;;;;;;;12.27;6.88;;;;;;;;;;5031722;28;20049;-81
2022/10/07 01:31:58;;;;;;;16.52;7.00;;;;;;;;;;5032098;28;20382;-81
2022/10/07 01:34:25;;;;;;;17.77;6.82;;;;;;;;;;5031570;28;20057;-80
2022/10/07 01:36:53;;;;;;;12.85;6.60;;;;;;;;;;5031763;28;20053;-80
2022/10/07 01:39:30;;;;;;;11.90;6.40;;;;;;;;;;5037100;28;20065;-79
2022/10/07 01:41:57;;;;;;;13.20;6.50;;;;;;;;;;5038726;28;20061;-80
2022/10/07 01:44:26;;;;;;;15.32;6.93;;;;;;;;;;5036261;28;20752;-80
2022/10/07 01:46:53;;;;;;;17.38;7.32;;;;;;;;;;5035175;28;20045;-79
2022/10/07 01:49:20;;;;;;;18.00;7.47;;;;;;;;;;5017548;28;20056;-80
2022/10/07 01:51:51;;;;;;;11.55;6.20;;;;;;;;;;5034894;28;20517;-80
2022/10/07 01:54:25;;;;;;;12.55;6.38;;;;;;;;;;5038427;28;20136;-80
2022/10/07 01:56:57;;;;;;;13.15;7.13;;;;;;;;;;5034598;28;20050;-79
2022/10/07 01:59:39;;;;;;;12.70;6.70;;;;;;;;;;5016102;28;20053;-79
2022/10/07 02:02:12;;;;;;;15.23;6.60;;;;;;;;;;5051425;28;20488;-81
2022/10/07 02:04:42;;;;;;;16.15;6.53;;;;;;;;;;5052511;28;20067;-81
2022/10/07 02:07:14;;;;;;;12.43;6.38;;;;;;;;;;5052988;28;20049;-80
2022/10/07 02:09:48;;;;;;;19.25;6.60;;;;;;;;;;5047499;28;20619;-81
2022/10/07 02:12:15;;;;;;;13.13;6.50;;;;;;;;;;5034972;28;20049;-80
2022/10/07 02:14:47;;;;;;;11.85;6.10;;;;;;;;;;5033983;28;20493;-79
2022/10/07 02:17:20;;;;;;;12.68;6.30;;;;;;;;;;5016512;28;20057;-80
2022/10/07 02:19:55;;;;;;;12.00;6.28;;;;;;;;;;5034091;28;20078;-80
2022/10/07 02:22:24;;;;;;;14.10;6.55;;;;;;;;;;5033795;28;20474;-79
2022/10/07 02:24:54;;;;;;;14.77;6.57;;;;;;;;;;5034169;28;20050;-80
2022/10/07 02:27:23;;;;;;;18.00;6.70;;;;;;;;;;5033608;28;20045;-80
2022/10/07 02:29:51;;;;;;;14.05;6.63;;;;;;;;;;5033084;28;20049;-80
2022/10/07 02:32:20;;;;;;;14.23;5.88;;;;;;;;;;5033466;28;20045;-78
2022/10/07 02:34:50;;;;;;;14.20;6.05;;;;;;;;;;5014888;28;20128;-79
2022/10/07 02:37:18;;;;;;;14.07;6.05;;;;;;;;;;5033826;28;20046;-79
2022/10/07 02:39:45;;;;;;;15.98;6.68;;;;;;;;;;5033117;28;20053;-79
2022/10/07 02:42:18;;;;;;;13.82;6.10;;;;;;;;;;5015010;28;20509;-81
2022/10/07 02:44:54;;;;;;;14.75;6.50;;;;;;;;;;5015407;28;20049;-79
2022/10/07 02:47:27;;;;;;;10.98;6.60;;;;;;;;;;5032203;28;20065;-79
2022/10/07 02:49:56;;;;;;;18.70;7.45;;;;;;;;;;5031690;28;20049;-79
2022/10/07 02:52:23;;;;;;;11.18;6.63;;;;;;;;;;5033440;28;20053;-80
2022/10/07 02:54:58;;;;;;;16.30;7.07;;;;;;;;;;5033792;28;20497;-78
2022/10/07 02:57:26;;;;;;;11.48;6.03;;;;;;;;;;5033167;28;20056;-80
2022/10/07 02:59:53;;;;;;;13.18;6.07;;;;;;;;;;5053169;28;20045;-80
2022/10/07 03:02:26;;;;;;;14.43;6.30;;;;;;;;;;5053979;28;20040;-79
2022/10/07 03:04:56;;;;;;;14.02;6.10;;;;;;;;;;5053338;28;20056;-80
2022/10/07 03:07:23;;;;;;;14.90;5.88;;;;;;;;;;5053025;28;20147;-80
2022/10/07 03:09:50;;;;;;;12.95;7.00;;;;;;;;;;5052406;28;20045;-81
2022/10/07 03:12:16;;;;;;;12.52;6.63;;;;;;;;;;5052786;28;20044;-80
2022/10/07 03:14:43;;;;;;;13.27;6.05;;;;;;;;;;5034015;28;20057;-80
2022/10/07 03:17:10;;;;;;;12.45;6.20;;;;;;;;;;5020690;28;20045;-80
2022/10/07 03:19:36;;;;;;;13.48;5.47;;;;;;;;;;5023104;28;20047;-80
2022/10/07 03:22:03;;;;;;;16.92;6.30;;;;;;;;;;5021311;28;20052;-80
2022/10/07 03:24:30;;;;;;;14.60;5.80;;;;;;;;;;5015465;28;20072;-81
2022/10/07 03:26:56;;;;;;;13.95;6.07;;;;;;;;;;5022979;28;20607;-80
2022/10/07 03:29:24;;;;;;;13.60;6.28;;;;;;;;;;5027914;28;20080;-80
2022/10/07 03:31:53;;;;;;;12.48;6.38;;;;;;;;;;4995700;28;20528;-81
2022/10/07 03:34:19;;;;;;;14.32;6.30;;;;;;;;;;5012785;28;20042;-80
2022/10/07 03:36:46;;;;;;;13.55;6.35;;;;;;;;;;5012804;28;20509;-81
2022/10/07 03:39:12;;;;;;;12.70;5.97;;;;;;;;;;5018004;28;20046;-78
2022/10/07 03:41:41;;;;;;;15.65;5.82;;;;;;;;;;5013010;28;20185;-78
2022/10/07 03:44:07;;;;;;;12.80;6.05;;;;;;;;;;5013571;28;20050;-79
2022/10/07 03:46:33;;;;;;;12.57;5.70;;;;;;;;;;5013097;28;20088;-80
2022/10/07 03:49:00;;;;;;;11.80;5.63;;;;;;;;;;5012480;28;20050;-79
2022/10/07 03:51:27;;;;;;;11.73;5.57;;;;;;;;;;5014040;28;20050;-79
2022/10/07 03:53:56;;;;;;;17.65;5.22;;;;;;;;;;5013931;28;20046;-80
2022/10/07 03:56:22;;;;;;;8.18;5.22;;;;;;;;;;4996440;28;20045;-78
2022/10/07 03:58:49;;;;;;;12.30;6.20;;;;;;;;;;5033664;28;20056;-79
2022/10/07 04:01:16;;;;;;;11.93;6.00;;;;;;;;;;5050907;28;20131;-80
2022/10/07 04:03:42;;;;;;;12.75;5.60;;;;;;;;;;5051064;28;20077;-82
2022/10/07 04:06:09;;;;;;;9.77;5.40;;;;;;;;;;5046110;28;20046;-80
2022/10/07 04:08:35;;;;;;;16.73;6.00;;;;;;;;;;5031501;28;20057;-79
2022/10/07 04:11:02;;;;;;;16.77;5.85;;;;;;;;;;5031723;28;20045;-80
2022/10/07 04:13:29;;;;;;;12.63;5.13;;;;;;;;;;5033399;28;20061;-80
2022/10/07 04:15:55;;;;;;;14.68;6.32;;;;;;;;;;5034019;28;20056;-80
2022/10/07 04:18:22;;;;;;;12.63;6.50;;;;;;;;;;5033768;28;20049;-79
2022/10/07 04:20:48;;;;;;;14.73;6.50;;;;;;;;;;5037639;28;20045;-80
2022/10/07 04:23:15;;;;;;;13.35;6.18;;;;;;;;;;5052220;28;20060;-81
2022/10/07 04:25:42;;;;;;;12.15;5.35;;;;;;;;;;5053382;28;20116;-79
2022/10/07 04:28:14;;;;;;;9.45;5.30;;;;;;;;;;5033298;28;20429;-78
2022/10/07 04:30:42;;;;;;;13.88;5.70;;;;;;;;;;5032187;28;20045;-80
2022/10/07 04:33:10;;;;;;;15.43;5.20;;;;;;;;;;5032001;28;20057;-81
2022/10/07 04:35:40;;;;;;;10.85;5.38;;;;;;;;;;5031742;28;20069;-79
2022/10/07 04:38:07;;;;;;;17.42;5.53;;;;;;;;;;5030359;28;20056;-80
2022/10/07 04:40:37;;;;;;;15.07;5.80;;;;;;;;;;5031337;28;20060;-80
2022/10/07 04:43:18;;;;;;;11.27;6.00;;;;;;;;;;5028513;28;20048;-81
2022/10/07 04:45:45;;;;;;;13.20;5.47;;;;;;;;;;5008253;28;20064;-80
2022/10/07 04:48:11;;;;;;;13.80;5.38;;;;;;;;;;5021781;28;20057;-78
2022/10/07 04:50:38;;;;;;;16.10;4.95;;;;;;;;;;5023151;28;20120;-79
2022/10/07 04:53:05;;;;;;;14.80;5.57;;;;;;;;;;5028594;28;20284;-79
2022/10/07 04:55:36;;;;;;;9.48;4.97;;;;;;;;;;5022572;28;20123;-78
2022/10/07 04:58:03;;;;;;;12.50;5.20;;;;;;;;;;5026623;28;20052;-79
2022/10/07 05:00:29;;;;;;;12.13;5.10;;;;;;;;;;5021537;28;20046;-79
2022/10/07 05:02:56;;;;;;;14.38;4.78;;;;;;;;;;5009231;28;20041;-78
2022/10/07 05:05:24;;;;;;;8.98;4.25;;;;;;;;;;5032033;28;20041;-79
2022/10/07 05:07:53;;;;;;;9.95;5.40;;;;;;;;;;5041900;28;20057;-79
2022/10/07 05:10:20;;;;;;;13.60;5.35;;;;;;;;;;5042673;28;20033;-81
2022/10/07 05:12:47;;;;;;;16.65;5.20;;;;;;;;;;5039442;28;20041;-79
2022/10/07 05:15:19;;;;;;;13.68;4.88;;;;;;;;;;5046541;28;20120;-80
2022/10/07 05:17:45;;;;;;;11.27;4.72;;;;;;;;;;5039705;28;20121;-79
2022/10/07 05:20:12;;;;;;;12.85;4.78;;;;;;;;;;5036277;28;20049;-80
2022/10/07 05:22:38;;;;;;;10.30;4.90;;;;;;;;;;5027696;28;20140;-79
2022/10/07 05:25:07;;;;;;;15.43;4.50;;;;;;;;;;5011533;28;20041;-79
2022/10/07 05:27:33;;;;;;;11.68;5.05;;;;;;;;;;5035236;28;20057;-79
2022/10/07 05:30:00;;;;;;;12.43;4.57;;;;;;;;;;5041932;28;20049;-79
2022/10/07 05:32:26;;;;;;;10.90;4.70;;;;;;;;;;5027857;28;20053;-80
2022/10/07 05:34:53;;;;;;;11.98;5.57;;;;;;;;;;5028143;28;20053;-79
2022/10/07 05:37:19;;;;;;;16.63;6.10;;;;;;;;;;5026521;28;20050;-79
2022/10/07 05:39:45;;;;;;;14.20;5.80;;;;;;;;;;5027178;28;20158;-78
2022/10/07 05:42:12;;;;;;;13.23;5.78;;;;;;;;;;5026851;28;20060;-79
2022/10/07 05:44:39;;;;;;;12.63;5.90;;;;;;;;;;5036043;28;20052;-79
2022/10/07 05:47:05;;;;;;;12.38;5.80;;;;;;;;;;5047598;28;20064;-79
2022/10/07 05:49:31;;;;;;;10.75;5.40;;;;;;;;;;5010235;28;20056;-80
2022/10/07 05:51:58;;;;;;;12.02;5.18;;;;;;;;;;5027407;28;20053;-80
2022/10/07 05:54:24;;;;;;;9.38;5.25;;;;;;;;;;5008889;28;20046;-79
2022/10/07 05:56:51;;;;;;;14.77;5.68;;;;;;;;;;5026689;28;20053;-77
2022/10/07 05:59:19;;;;;;;12.07;5.78;;;;;;;;;;5028489;28;20056;-79
2022/10/07 06:01:45;;;;;;;16.23;5.72;;;;;;;;;;5023064;28;20049;-80
2022/10/07 06:04:12;;;;;;;12.48;5.93;;;;;;;;;;5030204;28;20211;-80
2022/10/07 06:06:39;;;;;;;12.27;6.57;;;;;;;;;;5030172;28;20056;-79
2022/10/07 06:14:35;;;;;;;12.02;6.60;;;;;;;;;;5031067;28;20053;-79
2022/10/07 06:17:01;;;;;;;13.65;6.10;;;;;;;;;;5032179;28;20045;-80
2022/10/07 06:19:27;;;;;;;15.07;6.13;;;;;;;;;;5012857;28;20317;-81
2022/10/07 06:21:54;;;;;;;19.25;7.45;;;;;;;;;;5045529;28;20048;-81
2022/10/07 06:24:20;;;;;;;14.45;5.72;;;;;;;;;;5050140;28;20421;-81
2022/10/07 06:26:47;;;;;;;12.02;6.15;;;;;;;;;;5041353;28;20052;-81
2022/10/07 06:29:13;;;;;;;17.52;6.07;;;;;;;;;;5061217;28;20049;-79
2022/10/07 06:31:40;;;;;;;18.90;7.07;;;;;;;;;;5033852;28;20127;-80
2022/10/07 06:34:06;;;;;;;12.20;6.28;;;;;;;;;;5016883;28;20069;-81
2022/10/07 06:36:33;;;;;;;12.45;6.05;;;;;;;;;;5042683;28;20045;-81
2022/10/07 06:38:59;;;;;;;14.80;6.90;;;;;;;;;;5026820;28;20052;-79
2022/10/07 06:41:25;;;;;;;13.18;6.43;;;;;;;;;;5039113;28;20050;-81
2022/10/07 06:43:56;;;;;;;16.30;6.10;;;;;;;;;;5040730;28;20049;-81
2022/10/07 06:46:22;;;;;;;18.95;7.22;;;;;;;;;;5022798;28;20045;-79
2022/10/07 06:48:49;;;;;;;24.05;7.18;;;;;;;;;;5042920;28;20132;-79
2022/10/07 06:51:19;;;;;;;15.50;9.10;;;;;;;;;;5043583;28;20041;-78
2022/10/07 06:53:49;;;;;;;21.83;9.40;;;;;;;;;;5042408;28;20041;-80
2022/10/07 06:56:15;;;;;;;16.60;8.82;;;;;;;;;;5047513;28;20045;-79
2022/10/07 06:58:42;;;;;;;18.08;8.07;;;;;;;;;;5049000;28;20113;-80
2022/10/07 07:01:08;;;;;;;16.65;8.85;;;;;;;;;;5035638;28;20274;-79
2022/10/07 07:03:35;;;;;;;16.73;7.65;;;;;;;;;;5016622;28;20061;-79
2022/10/07 07:06:01;;;;;;;24.85;8.70;;;;;;;;;;5038444;28;20049;-80
2022/10/07 07:08:30;;;;;;;14.60;7.28;;;;;;;;;;5034749;28;20316;-80
2022/10/07 07:11:05;;;;;;;16.50;7.38;;;;;;;;;;5038627;28;20116;-79
2022/10/07 07:13:34;;;;;;;14.90;6.30;;;;;;;;;;5041709;28;20064;-79
2022/10/07 07:16:01;;;;;;;15.20;7.35;;;;;;;;;;5038214;28;20080;-78
2022/10/07 07:18:27;;;;;;;15.52;6.82;;;;;;;;;;5042721;28;20042;-80
2022/10/07 07:20:54;;;;;;;15.13;6.75;;;;;;;;;;5044252;28;20060;-80
2022/10/07 07:23:20;;;;;;;17.55;7.85;;;;;;;;;;5043818;28;20152;-79
2022/10/07 07:25:46;;;;;;;17.88;8.02;;;;;;;;;;5027067;28;20068;-80
2022/10/07 07:28:14;;;;;;;37.10;14.27;;;;;;;;;;5042992;28;20042;-80
2022/10/07 07:30:41;;;;;;;68.57;19.73;;;;;;;;;;5044176;28;20103;-80
2022/10/07 07:33:07;;;;;;;46.45;15.10;;;;;;;;;;5042413;28;20509;-81
2022/10/07 07:35:35;;;;;;;62.00;18.23;;;;;;;;;;5039870;28;20151;-80
2022/10/07 07:38:02;;;;;;;38.65;12.82;;;;;;;;;;5025277;28;20042;-82
2022/10/07 07:40:28;;;;;;;32.15;8.45;;;;;;;;;;5050338;28;20088;-79
2022/10/07 07:42:55;;;;;;;19.60;7.75;;;;;;;;;;5048202;28;20064;-80
2022/10/07 07:45:22;;;;;;;13.63;6.97;;;;;;;;;;5046785;28;20054;-81
2022/10/07 07:47:48;;;;;;;29.58;10.85;;;;;;;;;;5028169;28;20061;-80
2022/10/07 07:50:17;;;;;;;35.80;13.65;;;;;;;;;;5050097;28;20060;-80
2022/10/07 07:52:43;;;;;;;39.25;14.98;;;;;;;;;;5049945;28;20109;-80
2022/10/07 07:55:10;;;;;;;36.75;14.43;;;;;;;;;;5024058;28;20050;-80
2022/10/07 07:57:36;;;;;;;41.13;17.35;;;;;;;;;;5039790;28;20055;-81
2022/10/07 08:00:04;;;;;;;28.75;10.98;;;;;;;;;;5030057;28;20056;-79
2022/10/07 08:02:30;;;;;;;19.35;8.15;;;;;;;;;;5032098;28;20053;-78
2022/10/07 08:04:56;;;;;;;16.13;8.20;;;;;;;;;;5031366;28;20085;-80
2022/10/07 08:07:23;;;;;;;25.27;10.45;;;;;;;;;;5032679;28;20054;-80
2022/10/07 08:09:49;;;;;;;18.38;8.80;;;;;;;;;;5033657;28;20057;-81
2022/10/07 08:12:16;;;;;;;17.50;9.43;;;;;;;;;;5031811;28;20063;-79
2022/10/07 08:14:42;;;;;;;17.75;7.63;;;;;;;;;;5036621;28;20217;-80
2022/10/07 08:17:09;;;;;;;14.23;6.75;;;;;;;;;;5034615;28;20049;-77
2022/10/07 08:19:35;;;;;;;15.15;6.47;;;;;;;;;;5031651;28;20164;-80
2022/10/07 08:22:02;;;;;;;13.13;6.40;;;;;;;;;;5030397;28;20383;-80
2022/10/07 08:24:29;;;;;;;10.70;6.15;;;;;;;;;;5015616;28;20056;-81
2022/10/07 08:26:55;;;;;;;8.85;5.72;;;;;;;;;;5033565;28;20061;-80
2022/10/07 08:29:22;;;;;;;13.05;5.75;;;;;;;;;;5034305;28;20057;-80
2022/10/07 08:31:49;;;;;;;15.05;5.72;;;;;;;;;;5034593;28;20053;-81
2022/10/07 08:34:15;;;;;;;9.40;5.32;;;;;;;;;;5014102;28;20055;-79
2022/10/07 08:36:46;;;;;;;9.35;4.47;;;;;;;;;;5031747;28;20041;-79
2022/10/07 08:39:13;;;;;;;7.07;4.40;;;;;;;;;;5031250;28;20045;-80
2022/10/07 08:41:42;;;;;;;7.22;4.90;;;;;;;;;;5030680;28;20056;-80
2022/10/07 08:44:17;;;;;;;8.00;5.22;;;;;;;;;;5031163;28;20053;-80
2022/10/07 08:46:52;;;;;;;9.05;4.82;;;;;;;;;;5030694;28;20446;-79
2022/10/07 08:49:22;;;;;;;9.77;4.60;;;;;;;;;;5030049;28;20041;-80
2022/10/07 08:51:52;;;;;;;6.45;4.22;;;;;;;;;;5012578;28;20059;-78
2022/10/07 08:54:25;;;;;;;7.03;4.55;;;;;;;;;;5030726;28;20045;-79
2022/10/07 08:56:53;;;;;;;9.85;5.05;;;;;;;;;;5029469;28;20049;-78
2022/10/07 08:59:20;;;;;;;7.18;4.20;;;;;;;;;;5030454;28;20132;-80
2022/10/07 09:01:57;;;;;;;8.93;4.78;;;;;;;;;;5030694;28;20484;-80
2022/10/07 09:04:26;;;;;;;9.20;4.50;;;;;;;;;;5030418;28;20056;-80
2022/10/07 09:07:01;;;;;;;7.20;4.47;;;;;;;;;;5029196;28;20532;-79
2022/10/07 09:09:32;;;;;;;9.20;4.40;;;;;;;;;;5033400;28;20053;-79
2022/10/07 09:12:00;;;;;;;8.95;4.63;;;;;;;;;;5032874;28;20046;-81
2022/10/07 09:14:28;;;;;;;7.30;3.92;;;;;;;;;;5033539;28;20067;-79
2022/10/07 09:17:00;;;;;;;6.28;4.10;;;;;;;;;;5033134;28;20046;-78
2022/10/07 09:19:30;;;;;;;9.25;4.20;;;;;;;;;;5033273;28;20053;-78
2022/10/07 09:22:02;;;;;;;6.63;3.60;;;;;;;;;;5032975;28;20055;-78
2022/10/07 09:24:29;;;;;;;9.27;3.05;;;;;;;;;;5033313;28;20057;-78
2022/10/07 09:26:57;;;;;;;9.57;3.10;;;;;;;;;;5031918;28;20108;-79
2022/10/07 09:29:28;;;;;;;4.85;2.97;;;;;;;;;;5032647;28;20461;-78
2022/10/07 09:31:55;;;;;;;3.95;2.50;;;;;;;;;;5033242;28;20046;-80
2022/10/07 09:34:23;;;;;;;4.18;2.40;;;;;;;;;;5032516;28;20046;-79
2022/10/07 09:37:08;;;;;;;3.10;2.08;;;;;;;;;;5032895;28;20088;-79
2022/10/07 09:39:35;;;;;;;6.40;2.00;;;;;;;;;;5032929;28;20049;-78
2022/10/07 09:42:02;;;;;;;3.67;2.00;;;;;;;;;;5032540;28;20057;-79
2022/10/07 09:44:29;;;;;;;6.82;1.98;;;;;;;;;;5032866;28;20049;-79
2022/10/07 09:46:58;;;;;;;4.97;1.70;;;;;;;;;;5032736;28;20056;-78
2022/10/07 09:49:28;;;;;;;3.60;2.20;;;;;;;;;;5014769;28;20053;-79
2022/10/07 09:51:58;;;;;;;5.13;2.30;;;;;;;;;;5033854;28;20063;-78
2022/10/07 09:54:28;;;;;;;5.70;2.40;;;;;;;;;;5032671;28;20527;-79
2022/10/07 09:56:56;;;;;;;3.42;1.75;;;;;;;;;;5032616;28;20132;-79
2022/10/07 09:59:25;;;;;;;5.28;1.80;;;;;;;;;;5032490;28;20049;-80
2022/10/07 10:01:52;;;;;;;6.53;2.15;;;;;;;;;;5036634;28;20092;-80
2022/10/07 10:04:22;;;;;;;2.78;1.88;;;;;;;;;;5037516;28;20091;-78
2022/10/07 10:06:49;;;;;;;2.22;1.40;;;;;;;;;;5027627;28;20501;-80
2022/10/07 10:09:21;;;;;;;2.65;1.25;;;;;;;;;;5036189;28;20049;-78
2022/10/07 10:12:00;;;;;;;5.03;1.20;;;;;;;;;;5035233;28;20059;-79
2022/10/07 10:14:27;;;;;;;3.85;1.67;;;;;;;;;;5035986;28;20052;-80
2022/10/07 10:16:54;;;;;;;10.63;1.52;;;;;;;;;;5034307;28;20065;-79
2022/10/07 10:19:22;;;;;;;4.35;1.52;;;;;;;;;;5035316;28;20466;-78
2022/10/07 10:21:52;;;;;;;4.88;1.15;;;;;;;;;;5028704;28;20568;-79
2022/10/07 10:26:24;;;;;;;5.03;1.60;;;;;;;;;;5031576;28;20143;-79
2022/10/07 10:27:11;;;;;;;3.72;1.13;;;;;;;;;;5032385;28;20605;-79
2022/10/07 10:29:48;;;;;;;3.95;1.83;;;;;;;;;;5014930;28;20057;-78
2022/10/07 10:32:19;;;;;;;2.33;1.40;;;;;;;;;;5031200;28;20049;-79
2022/10/07 10:34:51;;;;;;;5.32;1.50;;;;;;;;;;5019847;28;20045;-78
2022/10/07 10:37:20;;;;;;;2.75;1.33;;;;;;;;;;5054573;28;20568;-77
2022/10/07 10:39:49;;;;;;;4.40;1.50;;;;;;;;;;5036952;28;20048;-78
2022/10/07 10:42:21;;;;;;;1.98;1.20;;;;;;;;;;5037760;28;20057;-79
2022/10/07 10:45:06;;;;;;;5.03;1.40;;;;;;;;;;5039664;28;20075;-79
2022/10/07 10:47:42;;;;;;;2.58;1.40;;;;;;;;;;5059448;28;20136;-78
2022/10/07 10:50:11;;;;;;;6.45;1.23;;;;;;;;;;5031983;28;20041;-78
2022/10/07 10:52:58;;;;;;;3.72;1.10;;;;;;;;;;5039989;28;20045;-78
2022/10/07 10:55:24;;;;;;;3.38;1.20;;;;;;;;;;5051543;28;20060;-79
2022/10/07 10:58:04;;;;;;;3.78;1.10;;;;;;;;;;5032449;28;20045;-79
2022/10/07 11:00:36;;;;;;;4.07;1.27;;;;;;;;;;5026225;28;20061;-78
2022/10/07 11:03:08;;;;;;;4.30;1.10;;;;;;;;;;5034401;28;20490;-79
2022/10/07 11:05:39;;;;;;;2.75;1.20;;;;;;;;;;5035561;28;20045;-79
2022/10/07 11:08:24;;;;;;;3.10;1.30;;;;;;;;;;5033999;28;20060;-80
2022/10/07 11:11:05;;;;;;;3.30;1.25;;;;;;;;;;5034580;28;20453;-80
2022/10/07 11:13:47;;;;;;;3.40;1.00;;;;;;;;;;5038125;28;20042;-78
2022/10/07 11:16:16;;;;;;;4.35;0.98;;;;;;;;;;5044910;28;20056;-79
2022/10/07 11:18:44;;;;;;;3.90;1.10;;;;;;;;;;5046848;28;20041;-81
2022/10/07 11:21:14;;;;;;;7.85;1.20;;;;;;;;;;5034241;28;20675;-80
2022/10/07 11:23:49;;;;;;;3.70;1.20;;;;;;;;;;5036116;28;20049;-79
2022/10/07 11:26:19;;;;;;;7.22;1.20;;;;;;;;;;5042229;28;20125;-78
2022/10/07 11:28:46;;;;;;;5.15;1.60;;;;;;;;;;5017782;28;20072;-79
2022/10/07 11:31:24;;;;;;;6.70;1.50;;;;;;;;;;5034549;28;20139;-78
2022/10/07 11:34:11;;;;;;;3.72;1.20;;;;;;;;;;5013434;28;20494;-78
2022/10/07 11:36:57;;;;;;;6.00;1.58;;;;;;;;;;5013156;28;20050;-77
2022/10/07 11:39:23;;;;;;;;;;;;;;;;;;4997571;28;20486;-78
2022/10/07 11:41:56;;;;;;;6.32;1.27;;;;;;;;;;5014658;28;19927;-78
2022/10/07 11:44:26;;;;;;;7.10;1.15;;;;;;;;;;5014744;28;20054;-77
2022/10/07 11:46:55;;;;;;;8.52;1.42;;;;;;;;;;5012588;28;20422;-78
2022/10/07 11:49:28;;;;;;;7.22;1.40;;;;;;;;;;5014413;28;20089;-79
2022/10/07 11:51:58;;;;;;;4.10;1.23;;;;;;;;;;5014027;28;20056;-79
2022/10/07 11:54:27;;;;;;;4.22;1.45;;;;;;;;;;5013872;28;20046;-78
2022/10/07 11:56:56;;;;;;;4.55;1.40;;;;;;;;;;5014502;28;20045;-79
2022/10/07 11:59:41;;;;;;;4.13;1.23;;;;;;;;;;5015272;28;20437;-80
2022/10/07 12:02:26;;;;;;;7.00;1.40;;;;;;;;;;5028545;28;20051;-79
2022/10/07 12:05:02;;;;;;;6.75;1.30;;;;;;;;;;5033451;28;20140;-78
2022/10/07 12:07:41;;;;;;;4.00;1.30;;;;;;;;;;5033549;28;20061;-77
2022/10/07 12:10:16;;;;;;;5.97;1.38;;;;;;;;;;5033934;28;20049;-78
2022/10/07 12:12:46;;;;;;;4.63;1.40;;;;;;;;;;5034150;28;20118;-79
2022/10/07 12:15:22;;;;;;;3.55;1.42;;;;;;;;;;5034298;28;20119;-77
2022/10/07 12:17:58;;;;;;;7.07;1.55;;;;;;;;;;5033190;28;20125;-78
2022/10/07 12:20:24;;;;;;;;;;;;;;;;;;5034861;28;20482;-78
2022/10/07 12:23:12;;;;;;;6.03;1.75;;;;;;;;;;5033763;28;20456;-79
2022/10/07 12:25:44;;;;;;;4.90;1.65;;;;;;;;;;5035271;28;20057;-80
2022/10/07 12:28:29;;;;;;;6.95;1.52;;;;;;;;;;5035385;28;20064;-78
2022/10/07 12:31:06;;;;;;;7.63;1.60;;;;;;;;;;5035811;28;20136;-79
2022/10/07 12:33:44;;;;;;;4.78;1.50;;;;;;;;;;5035094;28;20049;-79
2022/10/07 12:36:17;;;;;;;6.20;1.35;;;;;;;;;;5034288;28;20049;-79
2022/10/07 12:38:55;;;;;;;6.40;1.58;;;;;;;;;;5015272;28;20049;-80
2022/10/07 12:41:29;;;;;;;6.13;1.60;;;;;;;;;;5034512;28;20055;-79
2022/10/07 12:44:03;;;;;;;3.78;1.90;;;;;;;;;;5033532;28;20050;-80
2022/10/07 12:46:31;;;;;;;8.80;2.28;;;;;;;;;;5022814;28;20577;-78
2022/10/07 12:49:03;;;;;;;4.90;1.67;;;;;;;;;;5020401;28;20056;-79
2022/10/07 12:51:37;;;;;;;8.80;1.90;;;;;;;;;;5024348;28;20569;-77
2022/10/07 12:54:10;;;;;;;5.57;1.65;;;;;;;;;;5022813;28;20159;-78
2022/10/07 12:56:36;;;;;;;8.02;1.60;;;;;;;;;;5026322;28;20435;-78
2022/10/07 13:02:11;;;;;;;5.05;1.70;;;;;;;;;;5038895;28;20515;-77
2022/10/07 13:04:48;;;;;;;5.93;1.80;;;;;;;;;;5032320;28;20049;-79
2022/10/07 13:07:24;;;;;;;6.10;1.90;;;;;;;;;;5015013;28;20057;-78
2022/10/07 13:10:06;;;;;;;5.47;1.50;;;;;;;;;;5030531;28;20048;-80
2022/10/07 13:12:33;;;;;;;6.30;1.98;;;;;;;;;;5017674;28;20104;-77
2022/10/07 13:15:07;;;;;;;7.68;1.80;;;;;;;;;;5016471;28;20478;-76
2022/10/07 13:17:43;;;;;;;4.40;1.48;;;;;;;;;;5017748;28;20557;-77
2022/10/07 13:20:19;;;;;;;8.00;1.58;;;;;;;;;;5017129;28;20050;-79
2022/10/07 13:22:46;;;;;;;5.10;1.90;;;;;;;;;;5017241;28;20051;-80
2022/10/07 13:25:16;;;;;;;5.80;1.58;;;;;;;;;;5026414;28;20056;-80
2022/10/07 13:27:47;;;;;;;8.95;1.50;;;;;;;;;;5030834;28;20053;-78
2022/10/07 13:30:32;;;;;;;5.70;1.55;;;;;;;;;;5018447;28;20049;-79
2022/10/07 13:33:11;;;;;;;7.07;1.60;;;;;;;;;;5024854;28;20053;-78
2022/10/07 13:35:38;;;;;;;3.80;1.67;;;;;;;;;;5017216;28;20057;-80
2022/10/07 13:38:05;;;;;;;4.57;1.40;;;;;;;;;;5023926;28;20048;-78
2022/10/07 13:40:34;;;;;;;5.43;1.98;;;;;;;;;;5017897;28;20038;-79
2022/10/07 13:43:02;;;;;;;4.43;1.55;;;;;;;;;;5019311;28;20060;-79
2022/10/07 13:45:31;;;;;;;8.85;1.65;;;;;;;;;;5023870;28;20057;-78
2022/10/07 13:47:57;;;;;;;5.22;1.50;;;;;;;;;;5017281;28;20495;-78
2022/10/07 13:50:25;;;;;;;6.15;2.03;;;;;;;;;;5022312;28;20046;-78
2022/10/07 13:52:54;;;;;;;9.02;1.70;;;;;;;;;;5018472;28;20050;-79
2022/10/07 13:55:28;;;;;;;7.45;1.73;;;;;;;;;;5035022;28;20140;-78
2022/10/07 13:57:56;;;;;;;8.68;1.85;;;;;;;;;;5013040;28;20041;-79
2022/10/07 14:00:26;;;;;;;11.73;3.72;;;;;;;;;;5008183;28;20064;-79
2022/10/07 14:02:52;;;;;;;9.75;1.40;;;;;;;;;;5012818;28;20042;-79
2022/10/07 14:05:20;;;;;;;6.72;2.42;;;;;;;;;;5012163;28;20046;-80
2022/10/07 14:07:51;;;;;;;6.55;1.75;;;;;;;;;;5023394;28;20055;-79
2022/10/07 14:10:18;;;;;;;6.28;2.00;;;;;;;;;;5029649;28;20038;-80
2022/10/07 14:12:47;;;;;;;6.90;2.10;;;;;;;;;;5030875;28;20045;-79
2022/10/07 14:15:18;;;;;;;7.20;1.70;;;;;;;;;;5023052;28;20053;-80
2022/10/07 14:17:49;;;;;;;6.28;1.58;;;;;;;;;;5030078;28;20048;-79
2022/10/07 14:20:16;;;;;;;7.40;1.75;;;;;;;;;;5030907;28;20141;-79
2022/10/07 14:22:46;;;;;;;10.60;1.90;;;;;;;;;;5030696;28;20046;-79
2022/10/07 14:25:16;;;;;;;5.13;1.50;;;;;;;;;;5032072;28;20046;-79
2022/10/07 14:27:45;;;;;;;11.10;1.77;;;;;;;;;;5013531;28;20042;-79
2022/10/07 14:36:18;;;;;;;6.90;2.03;;;;;;;;;;5042736;28;20049;-78
2022/10/07 14:38:46;;;;;;;11.70;1.67;;;;;;;;;;5035857;28;20046;-79
2022/10/07 14:41:13;;;;;;;9.23;2.17;;;;;;;;;;5030281;28;20042;-78
2022/10/07 14:43:42;;;;;;;7.85;1.70;;;;;;;;;;5030352;28;20219;-79
2022/10/07 14:46:19;;;;;;;8.20;1.75;;;;;;;;;;5007684;28;20042;-78
2022/10/07 14:48:46;;;;;;;7.53;1.67;;;;;;;;;;4995217;28;20057;-79
2022/10/07 14:51:14;;;;;;;5.43;1.80;;;;;;;;;;5023036;28;20128;-79
2022/10/07 14:53:41;;;;;;;8.80;1.70;;;;;;;;;;5032726;28;20045;-79
2022/10/07 14:56:13;;;;;;;9.05;2.00;;;;;;;;;;5032285;28;20075;-79
2022/10/07 14:58:41;;;;;;;9.25;1.98;;;;;;;;;;5029147;28;20128;-79
2022/10/07 15:01:07;;;;;;;7.55;1.95;;;;;;;;;;5034837;28;20045;-79
2022/10/07 15:03:34;;;;;;;5.30;1.60;;;;;;;;;;5034577;28;20064;-80
2022/10/07 15:06:00;;;;;;;5.55;1.95;;;;;;;;;;5036309;28;20050;-80